Map

Track Data

SID SEASON NUMBER BASIN SUBBASIN NAME ISO_TIME NATURE LAT LON WMO_WIND WMO_PRES WMO_AGENCY TRACK_TYPE DIST2LAND LANDFALL IFLAG USA_AGENCY USA_ATCF_ID USA_LAT USA_LON USA_RECORD USA_STATUS USA_WIND USA_PRES USA_SSHS USA_R34_NE USA_R34_SE USA_R34_SW USA_R34_NW USA_R50_NE USA_R50_SE USA_R50_SW USA_R50_NW USA_R64_NE USA_R64_SE USA_R64_SW USA_R64_NW USA_POCI USA_ROCI USA_RMW USA_EYE TOKYO_LAT TOKYO_LON TOKYO_GRADE TOKYO_WIND TOKYO_PRES TOKYO_R50_DIR TOKYO_R50_LONG TOKYO_R50_SHORT TOKYO_R30_DIR TOKYO_R30_LONG TOKYO_R30_SHORT TOKYO_LAND CMA_LAT CMA_LON CMA_CAT CMA_WIND CMA_PRES HKO_LAT HKO_LON HKO_CAT HKO_WIND HKO_PRES NEWDELHI_LAT NEWDELHI_LON NEWDELHI_GRADE NEWDELHI_WIND NEWDELHI_PRES NEWDELHI_CI NEWDELHI_DP NEWDELHI_POCI REUNION_LAT REUNION_LON REUNION_TYPE REUNION_WIND REUNION_PRES REUNION_TNUM REUNION_CI REUNION_RMW REUNION_R34_NE REUNION_R34_SE REUNION_R34_SW REUNION_R34_NW REUNION_R50_NE REUNION_R50_SE REUNION_R50_SW REUNION_R50_NW REUNION_R64_NE REUNION_R64_SE REUNION_R64_SW REUNION_R64_NW BOM_LAT BOM_LON BOM_TYPE BOM_WIND BOM_PRES BOM_TNUM BOM_CI BOM_RMW BOM_R34_NE BOM_R34_SE BOM_R34_SW BOM_R34_NW BOM_R50_NE BOM_R50_SE BOM_R50_SW BOM_R50_NW BOM_R64_NE BOM_R64_SE BOM_R64_SW BOM_R64_NW BOM_ROCI BOM_POCI BOM_EYE BOM_POS_METHOD BOM_PRES_METHOD NADI_LAT NADI_LON NADI_CAT NADI_WIND NADI_PRES WELLINGTON_LAT WELLINGTON_LON WELLINGTON_WIND WELLINGTON_PRES DS824_LAT DS824_LON DS824_STAGE DS824_WIND DS824_PRES TD9636_LAT TD9636_LON TD9636_STAGE TD9636_WIND TD9636_PRES TD9635_LAT TD9635_LON TD9635_WIND TD9635_PRES TD9635_ROCI NEUMANN_LAT NEUMANN_LON NEUMANN_CLASS NEUMANN_WIND NEUMANN_PRES MLC_LAT MLC_LON MLC_CLASS MLC_WIND MLC_PRES USA_GUST BOM_GUST BOM_GUST_PER REUNION_GUST REUNION_GUST_PER USA_SEAHGT USA_SEARAD_NE USA_SEARAD_SE USA_SEARAD_SW USA_SEARAD_NW STORM_SPEED STORM_DIR
1906309N18278 1906 53 NA CS NOT_NAMED 1906-11-05 00:00:00 TS 18.5000 -82.5000 30 hurdat_atl main 325 303 O_____________ hurdat_atl AL111906 18.5000 -82.5000 TD 30 -1 5 0
1906309N18278 1906 53 NA CS NOT_NAMED 1906-11-05 03:00:00 TS 18.7475 -82.4975 main 303 270 P_____________ AL111906 18.7475 -82.4975 TD 30 -1 5 2
1906309N18278 1906 53 NA CS NOT_NAMED 1906-11-05 06:00:00 TS 19.0000 -82.5000 30 hurdat_atl main 270 248 O_____________ hurdat_atl AL111906 19.0000 -82.5000 TD 30 -1 5 0
1906309N18278 1906 53 NA CS NOT_NAMED 1906-11-05 09:00:00 TS 19.2575 -82.5075 main 236 214 P_____________ AL111906 19.2575 -82.5075 TD 32 -1 5 2
1906309N18278 1906 53 NA CS NOT_NAMED 1906-11-05 12:00:00 TS 19.5000 -82.5000 35 hurdat_atl main 214 192 O_____________ hurdat_atl AL111906 19.5000 -82.5000 TS 35 0 5 4
1906309N18278 1906 53 NA CS NOT_NAMED 1906-11-05 15:00:00 TS 19.7075 -82.4725 main 192 172 P_____________ AL111906 19.7075 -82.4725 TS 37 0 4 13
1906309N18278 1906 53 NA CS NOT_NAMED 1906-11-05 18:00:00 TS 19.9000 -82.4000 40 hurdat_atl main 172 154 O_____________ hurdat_atl AL111906 19.9000 -82.4000 TS 40 0 4 26
1906309N18278 1906 53 NA CS NOT_NAMED 1906-11-05 21:00:00 TS 20.1000 -82.2650 main 154 142 P_____________ AL111906 20.1000 -82.2650 TS 42 0 5 35
1906309N18278 1906 53 NA CS NOT_NAMED 1906-11-06 00:00:00 TS 20.3000 -82.1000 45 hurdat_atl main 142 130 O_____________ hurdat_atl AL111906 20.3000 -82.1000 TS 45 0 5 36
1906309N18278 1906 53 NA CS NOT_NAMED 1906-11-06 03:00:00 TS 20.5075 -81.9500 main 137 124 P_____________ AL111906 20.5075 -81.9500 TS 47 0 5 35
1906309N18278 1906 53 NA CS NOT_NAMED 1906-11-06 06:00:00 TS 20.7000 -81.8000 50 hurdat_atl main 124 115 O_____________ hurdat_atl AL111906 20.7000 -81.8000 TS 50 0 4 37
1906309N18278 1906 53 NA CS NOT_NAMED 1906-11-06 09:00:00 TS 20.8574 -81.6649 main 114 114 P_____________ AL111906 20.8574 -81.6649 TS 52 0 4 43
1906309N18278 1906 53 NA CS NOT_NAMED 1906-11-06 12:00:00 TS 21.0000 -81.5000 55 hurdat_atl main 116 101 O_____________ hurdat_atl AL111906 21.0000 -81.5000 TS 55 0 5 51
1906309N18278 1906 53 NA CS NOT_NAMED 1906-11-06 15:00:00 TS 21.1575 -81.2650 main 90 78 P_____________ AL111906 21.1575 -81.2650 TS 57 0 6 57
1906309N18278 1906 53 NA CS NOT_NAMED 1906-11-06 18:00:00 TS 21.3000 -81.0000 60 hurdat_atl main 80 73 O_____________ hurdat_atl AL111906 21.3000 -81.0000 TS 60 0 5 62
1906309N18278 1906 53 NA CS NOT_NAMED 1906-11-06 21:00:00 TS 21.4075 -80.7499 main 69 49 P_____________ AL111906 21.4075 -80.7499 TS 62 0 5 67
1906309N18278 1906 53 NA CS NOT_NAMED 1906-11-07 00:00:00 TS 21.5000 -80.5000 65 hurdat_atl main 49 30 O_____________ hurdat_atl AL111906 21.5000 -80.5000 HU 65 1 5 68
1906309N18278 1906 53 NA CS NOT_NAMED 1906-11-07 03:00:00 TS 21.5924 -80.2649 main 30 0 P_____________ AL111906 21.5924 -80.2649 HU 67 1 5 67
1906309N18278 1906 53 NA CS NOT_NAMED 1906-11-07 06:00:00 TS 21.7000 -80.0000 70 hurdat_atl main 0 0 O_____________ hurdat_atl AL111906 21.7000 -80.0000 HU 70 1 6 66
1906309N18278 1906 53 NA NA NOT_NAMED 1906-11-07 09:00:00 TS 21.8349 -79.6799 main 0 0 P_____________ AL111906 21.8349 -79.6799 HU 65 1 7 65
1906309N18278 1906 53 NA NA NOT_NAMED 1906-11-07 12:00:00 TS 22.0000 -79.3000 60 hurdat_atl main 0 0 O_____________ hurdat_atl AL111906 22.0000 -79.3000 TS 60 0 8 64
1906309N18278 1906 53 NA NA NOT_NAMED 1906-11-07 15:00:00 TS 22.2001 -78.8576 main 0 0 P_____________ AL111906 22.2001 -78.8576 TS 55 0 9 64
1906309N18278 1906 53 NA NA NOT_NAMED 1906-11-07 18:00:00 TS 22.4000 -78.4000 50 hurdat_atl main 11 11 O_____________ hurdat_atl AL111906 22.4000 -78.4000 TS 50 0 9 66
1906309N18278 1906 53 NA NA NOT_NAMED 1906-11-07 21:00:00 TS 22.5572 -78.0073 main 53 53 P_____________ AL111906 22.5572 -78.0073 TS 47 0 8 68
1906309N18278 1906 53 NA NA NOT_NAMED 1906-11-08 00:00:00 TS 22.7000 -77.6000 45 hurdat_atl main 88 88 O_____________ hurdat_atl AL111906 22.7000 -77.6000 TS 45 0 9 71
1906309N18278 1906 53 NA NA NOT_NAMED 1906-11-08 03:00:00 TS 22.8500 -77.1075 main 132 132 P_____________ AL111906 22.8500 -77.1075 TS 42 0 10 72
1906309N18278 1906 53 NA NA NOT_NAMED 1906-11-08 06:00:00 TS 23.0000 -76.6000 40 hurdat_atl main 154 154 O_____________ hurdat_atl AL111906 23.0000 -76.6000 TS 40 0 9 71
1906309N18278 1906 53 NA NA NOT_NAMED 1906-11-08 09:00:00 TS 23.1498 -76.1424 main 187 187 P_____________ AL111906 23.1498 -76.1424 TS 37 0 9 70
1906309N18278 1906 53 NA NA NOT_NAMED 1906-11-08 12:00:00 TS 23.3000 -75.7000 35 hurdat_atl main 229 229 O_____________ hurdat_atl AL111906 23.3000 -75.7000 TS 35 0 9 70
1906309N18278 1906 53 NA NA NOT_NAMED 1906-11-08 15:00:00 TS 23.4499 -75.2499 main 266 266 P_____________ AL111906 23.4499 -75.2499 TS 35 0 9 70
1906309N18278 1906 53 NA NA NOT_NAMED 1906-11-08 18:00:00 TS 23.6000 -74.8000 35 hurdat_atl main 301 294 O_____________ hurdat_atl AL111906 23.6000 -74.8000 TS 35 0 9 70
1906309N18278 1906 53 NA NA NOT_NAMED 1906-11-08 21:00:00 TS 23.7499 -74.3499 main 297 297 P_____________ AL111906 23.7499 -74.3499 TS 35 0 9 70
1906309N18278 1906 53 NA NA NOT_NAMED 1906-11-09 00:00:00 TS 23.9000 -73.9000 35 hurdat_atl main 310 306 O_____________ hurdat_atl AL111906 23.9000 -73.9000 TS 35 0 9 70
1906309N18278 1906 53 NA NA NOT_NAMED 1906-11-09 03:00:00 TS 24.0500 -73.4350 main 313 313 P_____________ AL111906 24.0500 -73.4350 TS 35 0 9 70
1906309N18278 1906 53 NA NA NOT_NAMED 1906-11-09 06:00:00 TS 24.2000 -73.0000 35 hurdat_atl main 335 335 O_____________ hurdat_atl AL111906 24.2000 -73.0000 TS 35 0 8 67
1906309N18278 1906 53 NA NA NOT_NAMED 1906-11-09 09:00:00 TS 24.3498 -72.6423 main 348 348 P_____________ AL111906 24.3498 -72.6423 TS 35 0 7 65
1906309N18278 1906 53 NA NA NOT_NAMED 1906-11-09 12:00:00 TS 24.5000 -72.3000 35 hurdat_atl main 375 375 O_____________ hurdat_atl AL111906 24.5000 -72.3000 TS 35 0 7 65
1906309N18278 1906 53 NA NA NOT_NAMED 1906-11-09 15:00:00 TS 24.6498 -71.9224 main 396 396 P_____________ AL111906 24.6498 -71.9224 TS 35 0 8 68
1906309N18278 1906 53 NA NA NOT_NAMED 1906-11-09 18:00:00 TS 24.8000 -71.5000 35 hurdat_atl main 430 430 O_____________ hurdat_atl AL111906 24.8000 -71.5000 TS 35 0 9 70
1906309N18278 1906 53 NA NA NOT_NAMED 1906-11-09 21:00:00 TS 24.9425 -71.0148 main 461 461 P_____________ AL111906 24.9425 -71.0148 TS 32 -1 10 72
1906309N18278 1906 53 NA NA NOT_NAMED 1906-11-10 00:00:00 ET 25.1000 -70.5000 30 hurdat_atl main 505 505 O_____________ hurdat_atl AL111906 25.1000 -70.5000 EX 30 -4 10 69
1906309N18278 1906 53 NA NA NOT_NAMED 1906-11-10 03:00:00 ET 25.2903 -69.9954 main 551 551 P_____________ AL111906 25.2903 -69.9954 EX 30 -4 10 66
1906309N18278 1906 53 NA NA NOT_NAMED 1906-11-10 06:00:00 ET 25.5000 -69.5000 30 hurdat_atl main 598 O_____________ hurdat_atl AL111906 25.5000 -69.5000 EX 30 -4 10 65

About IBTrACS Database

This database is a web-friendly format of International Best Track Archive for Climate Stewardship (IBTrACS), a global best track data archive curated by NOAA dating back to 1842.

Updated: 2021-12-03